PWSweather.com
Personal Weather Stations
Station Observations
INORDPAS37
Bondues, BonduesFR 59910

BonduesBonduesFR 59910

Lat: 50.7, Lon: 3.09

Elevation: 102

Station Type: Netatmo

http://bondues.meteoamikuze.com

High Low Average
Temperature 52.2°F11.2°C 40.8°F4.9°C 45.8°F7.7°C
Dew Point 40.1°F4.5°C 28.9°F-1.7°C 32.4°F0.2°C
Winds 15.4 mph 24.8 kmh 1.3 mph 2.1 kmh 7.0 mph WSW11.3 kmh WSW
Wind Gusts 34.9 mph56.2 kmh 3.8 mph6.1 kmh 15.0 mph24.1 kmh
Humidity 76% 56% 65%
Pressure 29.77 in1008.1 mb 29.35 in993.9 mb -
Precipitation 0.10 in2.5 mm - -
Hour Temp Dew Point Humidity Winds Wind Gusts Pressure Precip Precip Rate Daily Precip Total
12:15 AM 42.8°F6.0°C 29.8°F-1.2°C 65% 4.9 mph SW7.9 kmh SW 15.0 mph24.1 kmh 29.77 in1008.1 mb 0.00 in0.0 mm 0.00 in0.0 mm 0.00 in0.0 mm
12:21 AM 42.8°F6.0°C 29.8°F-1.2°C 65% 4.3 mph SW6.9 kmh SW 8.7 mph14.0 kmh 29.75 in1007.5 mb 0.00 in0.0 mm 0.00 in0.0 mm 0.00 in0.0 mm
12:45 AM 42.1°F5.6°C 29.8°F-1.2°C 67% 5.6 mph SW9.0 kmh SW 11.2 mph18.0 kmh 29.73 in1006.8 mb 0.01 in0.3 mm 0.03 in0.8 mm 0.01 in0.3 mm
01:05 AM 41.4°F5.2°C 29.5°F-1.4°C 68% 3.8 mph SW6.1 kmh SW 8.7 mph14.0 kmh 29.71 in1006.1 mb 0.02 in0.5 mm 0.01 in0.3 mm 0.02 in0.5 mm
01:25 AM 41.2°F5.1°C 29.7°F-1.3°C 69% 5.6 mph SW9.0 kmh SW 11.2 mph18.0 kmh 29.69 in1005.4 mb 0.02 in0.5 mm 0.01 in0.3 mm 0.02 in0.5 mm
01:45 AM 41.0°F5.0°C 30.0°F-1.1°C 70% 6.9 mph SSW11.1 kmh SSW 14.3 mph23.0 kmh 29.66 in1004.4 mb 0.02 in0.5 mm 0.00 in0.0 mm 0.03 in0.8 mm
02:05 AM 41.0°F5.0°C 30.0°F-1.1°C 70% 4.3 mph SW6.9 kmh SW 11.2 mph18.0 kmh 29.62 in1003.0 mb 0.02 in0.5 mm 0.01 in0.3 mm 0.04 in1.0 mm
02:25 AM 41.0°F5.0°C 30.0°F-1.1°C 70% 8.7 mph SW14.0 kmh SW 14.3 mph23.0 kmh 29.60 in1002.4 mb 0.05 in1.3 mm 0.07 in1.8 mm 0.07 in1.8 mm
02:46 AM 41.0°F5.0°C 30.4°F-0.9°C 71% 11.9 mph SW19.2 kmh SW 21.0 mph33.8 kmh 29.57 in1001.4 mb 0.07 in1.8 mm 0.06 in1.5 mm 0.10 in2.5 mm
03:06 AM 41.2°F5.1°C 30.6°F-0.8°C 71% 13.6 mph SW21.9 kmh SW 21.0 mph33.8 kmh 29.54 in1000.3 mb 0.06 in1.5 mm 0.00 in0.0 mm 0.10 in2.5 mm
03:35 AM 41.4°F5.2°C 30.7°F-0.7°C 71% 9.4 mph SW15.1 kmh SW 14.3 mph23.0 kmh 29.52 in999.7 mb 0.03 in0.8 mm 0.00 in0.0 mm 0.10 in2.5 mm
03:55 AM 41.7°F5.4°C 30.9°F-0.6°C 71% 5.6 mph SW9.0 kmh SW 13.0 mph20.9 kmh 29.50 in999.0 mb 0.00 in0.0 mm 0.00 in0.0 mm 0.10 in2.5 mm
04:15 AM 42.1°F5.6°C 31.6°F-0.2°C 72% 6.9 mph SW11.1 kmh SW 13.6 mph21.9 kmh 29.49 in998.6 mb 0.00 in0.0 mm 0.00 in0.0 mm 0.10 in2.5 mm
04:21 AM 42.6°F5.9°C 32.5°F0.3°C 73% 8.1 mph SW13.0 kmh SW 15.4 mph24.8 kmh 29.47 in998.0 mb 0.00 in0.0 mm 0.00 in0.0 mm 0.10 in2.5 mm
04:41 AM 43.7°F6.5°C 33.6°F0.9°C 73% 8.7 mph SW14.0 kmh SW 16.8 mph27.0 kmh 29.45 in997.3 mb 0.00 in0.0 mm 0.01 in0.3 mm 0.10 in2.5 mm
05:06 AM 45.3°F7.4°C 35.6°F2.0°C 74% 12.5 mph SW20.1 kmh SW 26.2 mph42.2 kmh 29.42 in996.3 mb 0.00 in0.0 mm 0.00 in0.0 mm 0.10 in2.5 mm
05:25 AM 46.8°F8.2°C 37.4°F3.0°C 75% 13.6 mph SW21.9 kmh SW 33.6 mph54.1 kmh 29.40 in995.6 mb 0.00 in0.0 mm 0.00 in0.0 mm 0.10 in2.5 mm
05:45 AM 48.4°F9.1°C 39.4°F4.1°C 76% 13.0 mph WSW20.9 kmh WSW 29.3 mph47.2 kmh 29.38 in994.9 mb 0.00 in0.0 mm 0.00 in0.0 mm 0.10 in2.5 mm
06:05 AM 49.5°F9.7°C 39.9°F4.4°C 75% 9.4 mph WNW15.1 kmh WNW 21.7 mph34.9 kmh 29.36 in994.2 mb 0.00 in0.0 mm 0.00 in0.0 mm 0.10 in2.5 mm
06:26 AM 50.4°F10.2°C 39.7°F4.3°C 72% 11.2 mph WNW18.0 kmh WNW 22.4 mph36.0 kmh 29.35 in993.9 mb 0.00 in0.0 mm 0.00 in0.0 mm 0.10 in2.5 mm
06:48 AM 50.7°F10.4°C 40.1°F4.5°C 72% 11.2 mph WSW18.0 kmh WSW 24.8 mph39.9 kmh 29.35 in993.9 mb 0.00 in0.0 mm 0.00 in0.0 mm 0.10 in2.5 mm
07:09 AM 50.9°F10.5°C 39.7°F4.3°C 71% 9.4 mph W15.1 kmh W 22.4 mph36.0 kmh 29.35 in993.9 mb 0.00 in0.0 mm 0.00 in0.0 mm 0.10 in2.5 mm
07:29 AM 51.4°F10.8°C 39.6°F4.2°C 69% 12.5 mph W20.1 kmh W 25.5 mph41.0 kmh 29.36 in994.2 mb 0.00 in0.0 mm 0.00 in0.0 mm 0.10 in2.5 mm
07:55 AM 51.8°F11.0°C 38.7°F3.7°C 66% 13.0 mph W20.9 kmh W 27.3 mph43.9 kmh 29.38 in994.9 mb 0.00 in0.0 mm 0.00 in0.0 mm 0.10 in2.5 mm
08:15 AM 52.2°F11.2°C 38.7°F3.7°C 65% 12.5 mph W20.1 kmh W 26.2 mph42.2 kmh 29.39 in995.3 mb 0.00 in0.0 mm 0.00 in0.0 mm 0.10 in2.5 mm
08:35 AM 51.6°F10.9°C 37.4°F3.0°C 63% 15.4 mph W24.8 kmh W 34.9 mph56.2 kmh 29.39 in995.3 mb 0.00 in0.0 mm 0.00 in0.0 mm 0.10 in2.5 mm
08:48 AM 50.9°F10.5°C 36.0°F2.2°C 61% 11.9 mph W19.2 kmh W 30.4 mph48.9 kmh 29.44 in997.0 mb 0.00 in0.0 mm 0.00 in0.0 mm 0.10 in2.5 mm
09:09 AM 50.2°F10.1°C 34.9°F1.6°C 60% 10.5 mph W16.9 kmh W 28.0 mph45.1 kmh 29.47 in998.0 mb 0.00 in0.0 mm 0.00 in0.0 mm 0.10 in2.5 mm
09:35 AM 49.8°F9.9°C 34.2°F1.2°C 59% 11.2 mph W18.0 kmh W 22.4 mph36.0 kmh 29.47 in998.0 mb 0.00 in0.0 mm 0.00 in0.0 mm 0.10 in2.5 mm
09:41 AM 48.9°F9.4°C 32.9°F0.5°C 58% 11.9 mph W19.2 kmh W 29.3 mph47.2 kmh 29.49 in998.6 mb 0.00 in0.0 mm 0.00 in0.0 mm 0.10 in2.5 mm
10:02 AM 48.4°F9.1°C 32.4°F0.2°C 58% 9.4 mph W15.1 kmh W 17.4 mph28.0 kmh 29.52 in999.7 mb 0.00 in0.0 mm 0.00 in0.0 mm 0.10 in2.5 mm
10:35 AM 48.2°F9.0°C 32.2°F0.1°C 58% 9.4 mph W15.1 kmh W 23.0 mph37.0 kmh 29.54 in1000.3 mb 0.00 in0.0 mm 0.00 in0.0 mm 0.10 in2.5 mm
10:41 AM 48.2°F9.0°C 32.2°F0.1°C 58% 8.1 mph W13.0 kmh W 16.1 mph25.9 kmh 29.56 in1001.0 mb 0.00 in0.0 mm 0.00 in0.0 mm 0.10 in2.5 mm
11:01 AM 48.2°F9.0°C 32.2°F0.1°C 58% 7.4 mph W11.9 kmh W 19.9 mph32.0 kmh 29.58 in1001.7 mb 0.00 in0.0 mm 0.00 in0.0 mm 0.10 in2.5 mm
11:35 AM 48.4°F9.1°C 32.4°F0.2°C 58% 9.4 mph W15.1 kmh W 22.4 mph36.0 kmh 29.59 in1002.0 mb 0.00 in0.0 mm 0.00 in0.0 mm 0.10 in2.5 mm
11:47 AM 48.4°F9.1°C 32.0°F0.0°C 57% 7.4 mph WNW11.9 kmh WNW 18.1 mph29.1 kmh 29.60 in1002.4 mb 0.00 in0.0 mm 0.00 in0.0 mm 0.10 in2.5 mm
12:06 PM 48.2°F9.0°C 31.8°F-0.1°C 57% 8.1 mph WNW13.0 kmh WNW 20.6 mph33.2 kmh 29.62 in1003.0 mb 0.00 in0.0 mm 0.00 in0.0 mm 0.10 in2.5 mm
12:21 PM 48.2°F9.0°C 31.5°F-0.3°C 56% 7.4 mph W11.9 kmh W 14.3 mph23.0 kmh 29.62 in1003.0 mb 0.00 in0.0 mm 0.00 in0.0 mm 0.10 in2.5 mm
12:46 PM 47.7°F8.7°C 31.3°F-0.4°C 57% 6.9 mph WNW11.1 kmh WNW 13.0 mph20.9 kmh 29.62 in1003.0 mb 0.00 in0.0 mm 0.00 in0.0 mm 0.10 in2.5 mm
01:06 PM 47.8°F8.8°C 31.5°F-0.3°C 57% 4.9 mph W7.9 kmh W 15.0 mph24.1 kmh 29.62 in1003.0 mb 0.00 in0.0 mm 0.00 in0.0 mm 0.10 in2.5 mm
01:27 PM 48.2°F9.0°C 31.8°F-0.1°C 57% 5.6 mph W9.0 kmh W 13.0 mph20.9 kmh 29.63 in1003.4 mb 0.00 in0.0 mm 0.00 in0.0 mm 0.10 in2.5 mm
01:46 PM 48.0°F8.9°C 31.6°F-0.2°C 57% 5.6 mph W9.0 kmh W 17.4 mph28.0 kmh 29.62 in1003.0 mb 0.00 in0.0 mm 0.00 in0.0 mm 0.10 in2.5 mm
02:07 PM 48.2°F9.0°C 31.8°F-0.1°C 57% 7.4 mph W11.9 kmh W 17.4 mph28.0 kmh 29.62 in1003.0 mb 0.00 in0.0 mm 0.00 in0.0 mm 0.10 in2.5 mm
02:27 PM 47.5°F8.6°C 31.1°F-0.5°C 57% 5.6 mph W9.0 kmh W 14.3 mph23.0 kmh 29.63 in1003.4 mb 0.00 in0.0 mm 0.00 in0.0 mm 0.10 in2.5 mm
02:47 PM 47.1°F8.4°C 31.3°F-0.4°C 58% 5.6 mph W9.0 kmh W 11.9 mph19.2 kmh 29.63 in1003.4 mb 0.00 in0.0 mm 0.00 in0.0 mm 0.10 in2.5 mm
03:01 PM 46.9°F8.3°C 31.1°F-0.5°C 58% 3.8 mph W6.1 kmh W 9.8 mph15.8 kmh 29.63 in1003.4 mb 0.00 in0.0 mm 0.00 in0.0 mm 0.10 in2.5 mm
03:21 PM 47.3°F8.5°C 31.5°F-0.3°C 58% 2.5 mph W4.0 kmh W 8.1 mph13.0 kmh 29.62 in1003.0 mb 0.00 in0.0 mm 0.00 in0.0 mm 0.10 in2.5 mm
03:42 PM 47.5°F8.6°C 32.0°F0.0°C 59% 4.3 mph W6.9 kmh W 9.8 mph15.8 kmh 29.63 in1003.4 mb 0.00 in0.0 mm 0.00 in0.0 mm 0.10 in2.5 mm
04:02 PM 47.3°F8.5°C 31.8°F-0.1°C 59% 4.3 mph W6.9 kmh W 8.1 mph13.0 kmh 29.64 in1003.7 mb 0.00 in0.0 mm 0.00 in0.0 mm 0.10 in2.5 mm
04:22 PM 46.9°F8.3°C 31.8°F-0.1°C 60% 3.1 mph W5.0 kmh W 6.9 mph11.1 kmh 29.64 in1003.7 mb 0.00 in0.0 mm 0.00 in0.0 mm 0.10 in2.5 mm
04:42 PM 46.4°F8.0°C 31.6°F-0.2°C 61% 2.5 mph W4.0 kmh W 5.6 mph9.0 kmh 29.63 in1003.4 mb 0.00 in0.0 mm 0.00 in0.0 mm 0.10 in2.5 mm
05:02 PM 45.9°F7.7°C 31.1°F-0.5°C 61% 1.8 mph W2.9 kmh W 3.8 mph6.1 kmh 29.64 in1003.7 mb 0.00 in0.0 mm 0.00 in0.0 mm 0.10 in2.5 mm
05:22 PM 45.3°F7.4°C 31.1°F-0.5°C 62% 1.3 mph W2.1 kmh W 3.8 mph6.1 kmh 29.63 in1003.4 mb 0.00 in0.0 mm 0.00 in0.0 mm 0.10 in2.5 mm
05:42 PM 44.8°F7.1°C 30.6°F-0.8°C 62% 1.8 mph W2.9 kmh W 3.8 mph6.1 kmh 29.63 in1003.4 mb 0.00 in0.0 mm 0.00 in0.0 mm 0.10 in2.5 mm
06:09 PM 44.6°F7.0°C 30.7°F-0.7°C 63% 2.5 mph WSW4.0 kmh WSW 7.4 mph11.9 kmh 29.62 in1003.0 mb 0.00 in0.0 mm 0.00 in0.0 mm 0.10 in2.5 mm
06:35 PM 44.6°F7.0°C 30.7°F-0.7°C 63% 3.1 mph WSW5.0 kmh WSW 6.9 mph11.1 kmh 29.62 in1003.0 mb 0.00 in0.0 mm 0.00 in0.0 mm 0.10 in2.5 mm
06:55 PM 44.6°F7.0°C 31.1°F-0.5°C 64% 3.1 mph WSW5.0 kmh WSW 5.6 mph9.0 kmh 29.62 in1003.0 mb 0.00 in0.0 mm 0.00 in0.0 mm 0.10 in2.5 mm
07:15 PM 44.8°F7.1°C 31.3°F-0.4°C 64% 2.5 mph WSW4.0 kmh WSW 7.4 mph11.9 kmh 29.63 in1003.4 mb 0.00 in0.0 mm 0.00 in0.0 mm 0.10 in2.5 mm
07:35 PM 44.6°F7.0°C 31.5°F-0.3°C 65% 2.5 mph WSW4.0 kmh WSW 5.6 mph9.0 kmh 29.63 in1003.4 mb 0.00 in0.0 mm 0.00 in0.0 mm 0.10 in2.5 mm
07:49 PM 44.2°F6.8°C 31.1°F-0.5°C 65% 3.1 mph WSW5.0 kmh WSW 9.4 mph15.1 kmh 29.62 in1003.0 mb 0.00 in0.0 mm 0.00 in0.0 mm 0.10 in2.5 mm
08:08 PM 44.1°F6.7°C 31.3°F-0.4°C 66% 3.8 mph WSW6.1 kmh WSW 8.7 mph14.0 kmh 29.63 in1003.4 mb 0.00 in0.0 mm 0.00 in0.0 mm 0.10 in2.5 mm
08:28 PM 44.1°F6.7°C 31.8°F-0.1°C 67% 4.9 mph W7.9 kmh W 11.2 mph18.0 kmh 29.64 in1003.7 mb 0.00 in0.0 mm 0.00 in0.0 mm 0.10 in2.5 mm
08:49 PM 44.1°F6.7°C 31.8°F-0.1°C 67% 4.9 mph W7.9 kmh W 13.0 mph20.9 kmh 29.64 in1003.7 mb 0.00 in0.0 mm 0.00 in0.0 mm 0.10 in2.5 mm
09:09 PM 43.9°F6.6°C 31.6°F-0.2°C 67% 3.1 mph W5.0 kmh W 9.8 mph15.8 kmh 29.65 in1004.1 mb 0.00 in0.0 mm 0.00 in0.0 mm 0.10 in2.5 mm
09:23 PM 43.7°F6.5°C 31.1°F-0.5°C 66% 2.5 mph WNW4.0 kmh WNW 4.9 mph7.9 kmh 29.66 in1004.4 mb 0.00 in0.0 mm 0.00 in0.0 mm 0.10 in2.5 mm
09:43 PM 43.2°F6.2°C 30.6°F-0.8°C 66% 2.5 mph W4.0 kmh W 6.9 mph11.1 kmh 29.67 in1004.7 mb 0.00 in0.0 mm 0.00 in0.0 mm 0.10 in2.5 mm
10:04 PM 42.6°F5.9°C 30.4°F-0.9°C 67% 2.5 mph W4.0 kmh W 5.6 mph9.0 kmh 29.67 in1004.7 mb 0.00 in0.0 mm 0.00 in0.0 mm 0.10 in2.5 mm
10:23 PM 42.6°F5.9°C 30.4°F-0.9°C 67% 2.5 mph WNW4.0 kmh WNW 4.3 mph6.9 kmh 29.67 in1004.7 mb 0.00 in0.0 mm 0.00 in0.0 mm 0.10 in2.5 mm
10:44 PM 41.9°F5.5°C 29.7°F-1.3°C 67% 1.8 mph W2.9 kmh W 4.9 mph7.9 kmh 29.68 in1005.1 mb 0.00 in0.0 mm 0.00 in0.0 mm 0.10 in2.5 mm
11:02 PM 41.2°F5.1°C 28.9°F-1.7°C 67% 2.5 mph W4.0 kmh W 8.1 mph13.0 kmh 29.68 in1005.1 mb 0.00 in0.0 mm 0.00 in0.0 mm 0.10 in2.5 mm
11:22 PM 41.0°F5.0°C 29.1°F-1.6°C 68% 3.1 mph W5.0 kmh W 5.6 mph9.0 kmh 29.68 in1005.1 mb 0.00 in0.0 mm 0.00 in0.0 mm 0.10 in2.5 mm
11:43 PM 40.8°F4.9°C 28.9°F-1.7°C 68% 3.1 mph W5.0 kmh W 8.7 mph14.0 kmh 29.69 in1005.4 mb 0.00 in0.0 mm 0.00 in0.0 mm 0.10 in2.5 mm